createdAt,value
2022-08-16T00:01:28.881Z,18.20
2022-08-16T00:04:05.143Z,18.40
2022-08-16T00:06:33.671Z,18.40
2022-08-16T00:09:04.860Z,18.30
2022-08-16T00:11:33.004Z,18.10
2022-08-16T00:14:01.136Z,17.90
2022-08-16T00:17:05.778Z,17.80
2022-08-16T00:19:41.146Z,17.90
2022-08-16T00:22:13.028Z,17.80
2022-08-16T00:24:44.770Z,17.90
2022-08-16T00:27:14.865Z,18.00
2022-08-16T00:29:43.588Z,17.90
2022-08-16T00:32:18.052Z,17.90
2022-08-16T00:34:53.195Z,17.90
2022-08-16T00:37:24.467Z,17.90
2022-08-16T00:39:57.449Z,17.90
2022-08-16T00:42:30.483Z,17.80
2022-08-16T00:45:08.285Z,17.80
2022-08-16T00:47:42.490Z,17.70
2022-08-16T00:50:21.435Z,17.70
2022-08-16T00:52:50.945Z,17.80
2022-08-16T00:55:22.097Z,17.80
2022-08-16T00:57:59.522Z,17.80
2022-08-16T01:00:30.625Z,17.80
2022-08-16T01:03:01.507Z,17.90
2022-08-16T01:05:32.795Z,17.90
2022-08-16T01:08:02.518Z,17.90
2022-08-16T01:10:51.137Z,17.90
2022-08-16T01:13:22.442Z,17.90
2022-08-16T01:15:54.002Z,17.90
2022-08-16T01:18:40.413Z,17.90
2022-08-16T01:21:33.605Z,17.90
2022-08-16T01:24:52.651Z,17.80
2022-08-16T01:27:04.406Z,17.70
2022-08-16T01:29:56.784Z,17.60
2022-08-16T01:32:33.262Z,17.50
2022-08-16T01:35:03.074Z,17.40
2022-08-16T01:37:39.207Z,17.40
2022-08-16T01:40:13.366Z,17.40
2022-08-16T01:42:44.947Z,17.30
2022-08-16T01:45:19.674Z,17.20
2022-08-16T01:47:51.045Z,16.90
2022-08-16T01:50:43.556Z,16.90
2022-08-16T01:53:11.078Z,16.90
2022-08-16T01:55:42.853Z,16.90
2022-08-16T01:58:23.667Z,17.00
2022-08-16T02:00:52.029Z,17.00
2022-08-16T02:03:24.210Z,16.90
2022-08-16T02:05:52.591Z,16.90
2022-08-16T02:08:33.709Z,16.80
2022-08-16T02:11:05.943Z,16.70
2022-08-16T02:13:34.130Z,16.70
2022-08-16T02:16:02.213Z,16.70
2022-08-16T02:18:30.372Z,16.70
2022-08-16T02:20:59.636Z,16.70
2022-08-16T02:23:29.503Z,16.70
2022-08-16T02:25:59.525Z,16.60
2022-08-16T02:28:29.980Z,16.70
2022-08-16T02:31:00.797Z,16.70
2022-08-16T02:33:43.814Z,16.60
2022-08-16T02:36:47.779Z,16.50
2022-08-16T02:39:06.915Z,16.50
2022-08-16T02:41:39.253Z,16.50
2022-08-16T02:44:11.101Z,16.40
2022-08-16T02:46:49.886Z,16.40
2022-08-16T02:49:21.921Z,16.40
2022-08-16T02:52:00.145Z,16.50
2022-08-16T02:54:29.201Z,16.60
2022-08-16T02:56:57.158Z,16.60
2022-08-16T02:59:27.524Z,16.70
2022-08-16T03:02:08.913Z,16.80
2022-08-16T03:04:50.134Z,16.80
2022-08-16T03:07:27.766Z,16.70
2022-08-16T03:09:56.327Z,16.60
2022-08-16T03:12:30.306Z,16.60
2022-08-16T03:15:07.205Z,16.50
2022-08-16T03:17:36.706Z,16.40
2022-08-16T03:20:21.487Z,16.50
2022-08-16T03:23:01.853Z,16.50
2022-08-16T03:25:43.249Z,16.60
2022-08-16T03:28:13.193Z,16.50
2022-08-16T03:30:42.626Z,16.50
2022-08-16T03:33:10.662Z,16.50
2022-08-16T03:35:40.289Z,16.50
2022-08-16T03:38:34.017Z,16.50
2022-08-16T03:41:00.640Z,16.50
2022-08-16T03:43:51.544Z,16.50
2022-08-16T03:46:47.570Z,16.50
2022-08-16T03:49:12.143Z,16.50
2022-08-16T03:51:40.609Z,16.50
2022-08-16T03:54:12.169Z,16.40
2022-08-16T03:56:56.788Z,16.40
2022-08-16T03:59:29.733Z,16.30
2022-08-16T04:02:01.108Z,16.30
2022-08-16T04:04:33.474Z,16.30
2022-08-16T04:07:02.761Z,16.40
2022-08-16T04:09:35.472Z,16.40
2022-08-16T04:12:10.606Z,16.40
2022-08-16T04:14:46.773Z,16.40
2022-08-16T04:17:18.790Z,16.40
2022-08-16T04:19:47.629Z,16.40
2022-08-16T04:22:20.171Z,16.20
2022-08-16T04:24:55.602Z,16.20
2022-08-16T04:27:28.930Z,16.10
2022-08-16T04:30:03.371Z,16.00
2022-08-16T04:32:33.376Z,15.90
2022-08-16T04:35:07.773Z,15.80
2022-08-16T04:37:42.196Z,15.90
2022-08-16T04:40:20.625Z,15.90
2022-08-16T04:42:50.786Z,16.00
2022-08-16T04:45:36.319Z,16.10
2022-08-16T04:48:07.009Z,16.00
2022-08-16T04:50:35.713Z,16.00
2022-08-16T04:53:04.092Z,16.00
2022-08-16T04:55:37.631Z,16.00
2022-08-16T04:58:45.073Z,16.10
2022-08-16T05:00:55.800Z,16.30
2022-08-16T05:03:26.349Z,16.30
2022-08-16T05:05:55.873Z,16.20
2022-08-16T05:08:31.167Z,16.20
2022-08-16T05:11:05.245Z,16.40
2022-08-16T05:13:40.486Z,16.60
2022-08-16T05:16:19.697Z,16.90
2022-08-16T05:18:51.056Z,17.10
2022-08-16T05:21:20.904Z,17.40
2022-08-16T05:23:55.925Z,17.50
2022-08-16T05:26:28.225Z,18.00
2022-08-16T05:28:56.992Z,18.30
2022-08-16T05:31:29.605Z,18.40
2022-08-16T05:34:00.417Z,18.60
2022-08-16T05:36:36.340Z,18.80
2022-08-16T05:39:06.549Z,18.60
2022-08-16T05:41:44.736Z,18.80
2022-08-16T05:44:22.856Z,19.00
2022-08-16T05:46:55.922Z,19.10
2022-08-16T05:49:38.901Z,19.70
2022-08-16T05:52:11.719Z,20.30
2022-08-16T05:54:46.572Z,20.80
2022-08-16T05:57:15.349Z,21.30
2022-08-16T05:59:43.393Z,21.70
2022-08-16T06:02:12.521Z,21.60
2022-08-16T06:04:42.215Z,21.70
2022-08-16T06:07:25.174Z,21.40
2022-08-16T06:09:59.607Z,21.30
2022-08-16T06:12:29.164Z,21.60
2022-08-16T06:14:59.811Z,21.40
2022-08-16T06:17:41.554Z,21.60
2022-08-16T06:20:18.572Z,21.50
2022-08-16T06:22:57.901Z,21.30
2022-08-16T06:25:36.053Z,21.10
2022-08-16T06:28:08.457Z,21.20
2022-08-16T06:30:43.854Z,21.40
2022-08-16T06:33:19.830Z,21.70
2022-08-16T06:35:54.940Z,21.80
2022-08-16T06:38:33.413Z,21.80
2022-08-16T06:41:03.778Z,22.00
2022-08-16T06:43:32.327Z,21.90
2022-08-16T06:46:00.972Z,21.80
2022-08-16T06:48:33.737Z,21.70
2022-08-16T06:51:04.422Z,21.60
2022-08-16T06:53:36.517Z,21.60
2022-08-16T06:56:14.769Z,21.80
2022-08-16T06:58:53.616Z,21.90
2022-08-16T07:01:44.576Z,22.20
2022-08-16T07:04:12.137Z,22.50
2022-08-16T07:06:43.525Z,22.90
2022-08-16T07:09:15.886Z,23.10
2022-08-16T07:11:47.341Z,23.40
2022-08-16T07:14:23.531Z,23.60
2022-08-16T07:16:57.962Z,23.70
2022-08-16T07:20:01.748Z,24.00
2022-08-16T07:22:37.811Z,24.20
2022-08-16T07:25:07.742Z,24.20
2022-08-16T07:27:37.293Z,24.20
2022-08-16T07:30:39.059Z,24.30
2022-08-16T07:32:56.607Z,24.40
2022-08-16T07:35:25.904Z,24.90
2022-08-16T07:37:55.358Z,25.20
2022-08-16T07:40:49.252Z,25.30
2022-08-16T07:43:12.120Z,25.40
2022-08-16T07:45:42.874Z,25.40
2022-08-16T07:48:12.677Z,25.60
2022-08-16T07:50:57.301Z,25.80
2022-08-16T07:53:29.184Z,26.10
2022-08-16T07:55:57.947Z,26.40
2022-08-16T07:58:34.752Z,26.40
2022-08-16T08:01:10.029Z,26.50
2022-08-16T08:03:43.676Z,26.60
2022-08-16T08:06:15.960Z,26.70
2022-08-16T08:08:50.877Z,26.90
2022-08-16T08:11:23.843Z,27.10
2022-08-16T08:13:53.537Z,27.10
2022-08-16T08:16:30.299Z,27.10
2022-08-16T08:19:01.136Z,27.20
2022-08-16T08:22:00.912Z,27.30
2022-08-16T08:24:22.009Z,26.90
2022-08-16T08:26:50.683Z,26.80
2022-08-16T08:29:23.003Z,26.90
2022-08-16T08:31:53.250Z,27.20
2022-08-16T08:34:23.118Z,27.30
2022-08-16T08:36:54.575Z,27.50
2022-08-16T08:39:24.194Z,27.80
2022-08-16T08:41:53.390Z,27.90
2022-08-16T08:44:29.412Z,27.80
2022-08-16T08:47:01.858Z,27.40
2022-08-16T08:49:54.964Z,27.00
2022-08-16T08:52:34.110Z,26.80
2022-08-16T08:55:10.303Z,26.70
2022-08-16T08:57:39.600Z,26.80
2022-08-16T09:00:13.227Z,26.60
2022-08-16T09:02:44.445Z,26.50
2022-08-16T09:05:16.465Z,26.60
2022-08-16T09:08:01.837Z,26.80
2022-08-16T09:10:40.820Z,26.90
2022-08-16T09:13:10.782Z,27.20
2022-08-16T09:15:39.790Z,27.40
2022-08-16T09:18:24.811Z,27.60
2022-08-16T09:20:59.246Z,27.70
2022-08-16T09:23:29.186Z,27.50
2022-08-16T09:25:58.679Z,27.50
2022-08-16T09:29:13.681Z,27.50
2022-08-16T09:31:15.397Z,27.30
2022-08-16T09:33:44.548Z,27.60
2022-08-16T09:36:32.841Z,27.50
2022-08-16T09:39:02.254Z,27.30
2022-08-16T09:41:34.173Z,27.30
2022-08-16T09:45:11.228Z,27.50
2022-08-16T09:46:57.550Z,27.80
2022-08-16T09:49:36.918Z,27.70
2022-08-16T09:52:05.952Z,27.80
2022-08-16T09:54:34.214Z,27.60
2022-08-16T09:57:03.920Z,27.70
2022-08-16T09:59:38.601Z,27.90
2022-08-16T10:02:26.135Z,28.60
2022-08-16T10:04:56.273Z,29.20
2022-08-16T10:07:25.293Z,29.50
2022-08-16T10:09:56.128Z,29.60
2022-08-16T10:12:45.298Z,29.40
2022-08-16T10:15:17.705Z,29.20
2022-08-16T10:18:00.186Z,29.00
2022-08-16T10:20:31.436Z,29.10
2022-08-16T10:23:05.773Z,29.50
2022-08-16T10:27:17.214Z,29.80
2022-08-16T10:28:28.854Z,29.60
2022-08-16T10:30:58.729Z,29.60
2022-08-16T10:33:29.694Z,30.00
2022-08-16T10:36:03.995Z,29.90
2022-08-16T10:38:36.728Z,29.60
2022-08-16T10:41:06.723Z,29.40
2022-08-16T10:43:37.837Z,29.20
2022-08-16T10:46:39.974Z,29.40
2022-08-16T10:48:56.150Z,29.50
2022-08-16T10:51:33.431Z,29.60
2022-08-16T10:54:04.817Z,29.70
2022-08-16T10:56:55.499Z,30.10
2022-08-16T10:59:44.075Z,29.80
2022-08-16T11:02:59.321Z,29.40
2022-08-16T11:05:06.249Z,29.30
2022-08-16T11:07:43.737Z,29.50
2022-08-16T11:10:20.654Z,29.90
2022-08-16T11:12:52.884Z,30.20
2022-08-16T11:15:24.475Z,30.20
2022-08-16T11:20:49.382Z,30.40
2022-08-16T11:23:18.773Z,30.10
2022-08-16T11:26:16.618Z,30.00
2022-08-16T11:29:12.527Z,29.90
2022-08-16T11:31:27.014Z,30.00
2022-08-16T11:33:55.470Z,30.30
2022-08-16T11:36:27.475Z,30.30
2022-08-16T11:38:58.060Z,30.50
2022-08-16T11:41:26.454Z,30.80
2022-08-16T11:43:54.881Z,31.00
2022-08-16T11:46:44.633Z,30.70
2022-08-16T11:49:13.988Z,30.50
2022-08-16T11:51:44.029Z,29.90
2022-08-16T11:54:21.444Z,30.10
2022-08-16T11:56:57.080Z,30.50
2022-08-16T11:59:28.768Z,30.70
2022-08-16T12:02:00.062Z,30.70
2022-08-16T12:04:35.060Z,30.60
2022-08-16T12:07:03.874Z,30.30
2022-08-16T12:09:32.063Z,30.50
2022-08-16T12:12:02.735Z,30.40
2022-08-16T12:14:35.485Z,30.30
2022-08-16T12:17:08.341Z,30.40
2022-08-16T12:19:38.266Z,30.30
2022-08-16T12:22:18.907Z,30.20
2022-08-16T12:24:51.985Z,30.50
2022-08-16T12:27:23.189Z,30.80
2022-08-16T12:29:52.318Z,31.00
2022-08-16T12:32:35.891Z,31.40
2022-08-16T12:35:12.212Z,31.60
2022-08-16T12:37:41.818Z,31.90
2022-08-16T12:40:25.096Z,31.60
2022-08-16T12:42:59.712Z,31.00
2022-08-16T12:45:31.772Z,31.00
2022-08-16T12:48:34.258Z,31.00
2022-08-16T12:51:07.345Z,31.00
2022-08-16T12:53:44.997Z,31.10
2022-08-16T12:56:15.294Z,31.20
2022-08-16T12:58:48.301Z,31.30
2022-08-16T13:01:22.494Z,31.10
2022-08-16T13:03:59.092Z,31.10
2022-08-16T13:06:39.985Z,31.10
2022-08-16T13:09:20.752Z,31.20
2022-08-16T13:12:00.157Z,31.00
2022-08-16T13:14:33.542Z,31.30
2022-08-16T13:17:05.168Z,31.70
2022-08-16T13:20:03.466Z,32.00
2022-08-16T13:22:25.054Z,32.10
2022-08-16T13:24:53.585Z,32.00
2022-08-16T13:27:59.255Z,31.80
2022-08-16T13:30:36.062Z,31.50
2022-08-16T13:33:00.612Z,30.80
2022-08-16T13:35:34.783Z,30.10
2022-08-16T13:38:04.956Z,30.30
2022-08-16T13:40:34.540Z,30.70
2022-08-16T13:43:03.248Z,30.90
2022-08-16T13:45:36.407Z,30.70
2022-08-16T13:48:06.479Z,30.30
2022-08-16T13:50:51.399Z,30.40
2022-08-16T13:53:24.421Z,30.40
2022-08-16T13:55:58.398Z,30.90
2022-08-16T13:58:35.116Z,30.70
2022-08-16T14:01:09.993Z,30.70
2022-08-16T14:03:40.019Z,31.00
2022-08-16T14:06:10.781Z,31.10
2022-08-16T14:08:42.361Z,31.30
2022-08-16T14:11:12.437Z,31.50
2022-08-16T14:13:42.132Z,31.60
2022-08-16T14:16:24.252Z,31.90
2022-08-16T14:18:59.200Z,31.90
2022-08-16T14:21:27.227Z,31.60
2022-08-16T14:24:12.934Z,31.30
2022-08-16T14:26:50.563Z,31.30
2022-08-16T14:31:53.922Z,31.50
2022-08-16T14:34:25.681Z,31.50
2022-08-16T14:36:53.979Z,31.40
2022-08-16T14:39:23.406Z,31.20
2022-08-16T14:41:53.497Z,31.20
2022-08-16T14:44:24.211Z,31.20
2022-08-16T14:46:54.379Z,31.00
2022-08-16T14:49:23.933Z,30.90
2022-08-16T14:51:52.126Z,30.80
2022-08-16T14:54:21.807Z,30.70
2022-08-16T14:56:55.062Z,30.70
2022-08-16T14:59:23.745Z,30.70
2022-08-16T15:01:52.228Z,30.70
2022-08-16T15:04:39.774Z,30.60
2022-08-16T15:07:11.142Z,30.60
2022-08-16T15:09:43.929Z,30.60
2022-08-16T15:12:33.446Z,30.50
2022-08-16T15:15:04.432Z,30.40
2022-08-16T15:17:40.561Z,30.20
2022-08-16T15:20:09.930Z,30.20
2022-08-16T15:22:39.928Z,30.20
2022-08-16T15:25:12.445Z,30.40
2022-08-16T15:27:43.505Z,30.70
2022-08-16T15:30:57.125Z,30.80
2022-08-16T15:33:03.683Z,30.90
2022-08-16T15:35:33.448Z,31.00
2022-08-16T15:38:09.309Z,30.90
2022-08-16T15:40:57.572Z,31.10
2022-08-16T15:43:39.396Z,31.10
2022-08-16T15:46:34.951Z,30.90
2022-08-16T15:49:12.435Z,30.60
2022-08-16T15:51:41.223Z,30.50
2022-08-16T15:54:21.150Z,30.50
2022-08-16T15:57:04.283Z,30.60
2022-08-16T15:59:49.108Z,30.70
2022-08-16T16:02:29.150Z,30.80
2022-08-16T16:05:01.880Z,30.70
2022-08-16T16:07:32.100Z,30.60
2022-08-16T16:10:02.081Z,30.50
2022-08-16T16:12:54.005Z,30.40
2022-08-16T16:15:23.605Z,30.40
2022-08-16T16:17:53.207Z,30.40
2022-08-16T16:20:22.305Z,30.40
2022-08-16T16:22:52.685Z,30.40
2022-08-16T16:25:21.072Z,30.30
2022-08-16T16:27:55.854Z,30.30
2022-08-16T16:30:37.200Z,30.20
2022-08-16T16:33:15.549Z,30.20
2022-08-16T16:35:55.427Z,30.20
2022-08-16T16:38:30.873Z,30.20
2022-08-16T16:40:59.605Z,30.20
2022-08-16T16:43:31.805Z,30.30
2022-08-16T16:46:05.837Z,30.30
2022-08-16T16:48:52.545Z,30.20
2022-08-16T16:51:22.557Z,30.10
2022-08-16T16:53:56.114Z,30.00
2022-08-16T16:56:32.214Z,30.00
2022-08-16T16:59:06.162Z,29.90
2022-08-16T17:01:56.417Z,29.90
2022-08-16T17:04:31.804Z,29.80
2022-08-16T17:07:01.938Z,29.70
2022-08-16T17:09:30.123Z,29.60
2022-08-16T17:11:59.427Z,29.50
2022-08-16T17:14:32.105Z,29.40
2022-08-16T17:17:06.149Z,29.40
2022-08-16T17:19:34.497Z,29.20
2022-08-16T17:22:14.162Z,29.10
2022-08-16T17:24:45.122Z,29.10
2022-08-16T17:27:17.992Z,29.10
2022-08-16T17:29:47.521Z,29.00
2022-08-16T17:32:34.419Z,28.90
2022-08-16T17:35:17.843Z,28.90
2022-08-16T17:37:51.454Z,28.70
2022-08-16T17:40:45.714Z,28.60
2022-08-16T17:43:13.443Z,28.40
2022-08-16T17:45:42.976Z,28.40
2022-08-16T17:48:13.233Z,28.40
2022-08-16T17:50:43.189Z,28.40
2022-08-16T17:53:13.129Z,28.30
2022-08-16T17:55:44.523Z,28.30
2022-08-16T17:58:23.718Z,28.20
2022-08-16T18:00:54.185Z,28.10
2022-08-16T18:04:02.334Z,28.10
2022-08-16T18:06:18.554Z,28.00
2022-08-16T18:08:48.552Z,27.90
2022-08-16T18:11:18.123Z,27.80
2022-08-16T18:13:46.270Z,27.80
2022-08-16T18:16:15.882Z,27.80
2022-08-16T18:18:46.099Z,27.70
2022-08-16T18:21:33.375Z,27.60
2022-08-16T18:24:01.720Z,27.50
2022-08-16T18:26:30.023Z,27.40
2022-08-16T18:28:58.043Z,27.40
2022-08-16T18:31:26.332Z,27.40
2022-08-16T18:33:56.305Z,27.20
2022-08-16T18:36:24.545Z,27.20
2022-08-16T18:38:53.630Z,27.20
2022-08-16T18:41:23.823Z,27.10
2022-08-16T18:44:23.088Z,27.10
2022-08-16T18:46:41.120Z,27.00
2022-08-16T18:49:14.947Z,26.90
2022-08-16T18:51:46.346Z,26.80
2022-08-16T18:54:18.386Z,26.90
2022-08-16T18:56:56.903Z,26.80
2022-08-16T18:59:27.750Z,26.70
2022-08-16T19:02:00.323Z,26.60
2022-08-16T19:04:55.237Z,26.50
2022-08-16T19:07:30.463Z,26.40
2022-08-16T19:10:00.833Z,26.40
2022-08-16T19:12:38.173Z,26.30
2022-08-16T19:15:14.339Z,26.20
2022-08-16T19:17:44.831Z,26.20
2022-08-16T19:20:17.578Z,26.10
2022-08-16T19:23:04.508Z,26.10
2022-08-16T19:25:46.803Z,26.00
2022-08-16T19:28:50.169Z,25.90
2022-08-16T19:31:05.905Z,25.90
2022-08-16T19:33:34.223Z,25.80
2022-08-16T19:36:03.916Z,25.70
2022-08-16T19:38:32.142Z,25.70
2022-08-16T19:41:00.163Z,25.70
2022-08-16T19:43:28.229Z,25.50
2022-08-16T19:45:56.620Z,25.40
2022-08-16T19:48:24.609Z,25.20
2022-08-16T19:50:52.733Z,25.20
2022-08-16T19:53:22.087Z,25.10
2022-08-16T19:55:50.085Z,25.00
2022-08-16T19:58:20.073Z,24.90
2022-08-16T20:00:52.290Z,25.00
2022-08-16T20:03:22.840Z,24.90
2022-08-16T20:05:52.002Z,24.80
2022-08-16T20:08:22.269Z,24.90
2022-08-16T20:10:51.293Z,24.70
2022-08-16T20:13:21.116Z,24.60
2022-08-16T20:15:50.849Z,24.70
2022-08-16T20:18:25.242Z,24.30
2022-08-16T20:20:54.283Z,24.20
2022-08-16T20:23:25.169Z,24.30
2022-08-16T20:25:55.556Z,24.10
2022-08-16T20:28:49.976Z,24.00
2022-08-16T20:31:12.468Z,23.90
2022-08-16T20:33:40.490Z,23.90
2022-08-16T20:36:09.186Z,23.70
2022-08-16T20:38:47.650Z,23.70
2022-08-16T20:41:16.404Z,23.60
2022-08-16T20:43:45.560Z,23.60
2022-08-16T20:46:14.091Z,23.50
2022-08-16T20:48:42.154Z,23.40
2022-08-16T20:51:11.441Z,23.30
2022-08-16T20:53:39.652Z,23.20
2022-08-16T20:56:12.091Z,23.10
2022-08-16T20:58:40.098Z,23.00
2022-08-16T21:01:09.263Z,23.00
2022-08-16T21:03:37.465Z,22.90
2022-08-16T21:06:06.441Z,22.90
2022-08-16T21:08:51.497Z,22.90
2022-08-16T21:11:24.180Z,22.80
2022-08-16T21:14:00.458Z,22.80
2022-08-16T21:16:28.624Z,22.70
2022-08-16T21:18:56.706Z,22.70
2022-08-16T21:21:24.619Z,22.50
2022-08-16T21:24:00.137Z,22.30
2022-08-16T21:26:30.107Z,22.30
2022-08-16T21:28:58.274Z,22.20
2022-08-16T21:31:26.590Z,22.20
2022-08-16T21:33:55.404Z,22.30
2022-08-16T21:36:35.922Z,22.30
2022-08-16T21:39:06.613Z,22.20
2022-08-16T21:41:38.336Z,22.30
2022-08-16T21:44:06.448Z,22.20
2022-08-16T21:46:34.499Z,22.30
2022-08-16T21:49:04.613Z,22.10
2022-08-16T21:51:32.673Z,22.00
2022-08-16T21:54:00.625Z,22.10
2022-08-16T21:56:28.597Z,22.10
2022-08-16T21:58:58.029Z,22.00
2022-08-16T22:01:26.884Z,21.90
2022-08-16T22:04:03.542Z,21.80
2022-08-16T22:06:43.899Z,21.70
2022-08-16T22:09:15.495Z,21.60
2022-08-16T22:11:44.246Z,21.60
2022-08-16T22:14:13.707Z,21.60
2022-08-16T22:16:43.444Z,21.50
2022-08-16T22:19:13.242Z,21.50
2022-08-16T22:21:41.375Z,21.50
2022-08-16T22:24:09.485Z,21.40
2022-08-16T22:26:43.079Z,21.40
2022-08-16T22:29:14.745Z,21.50
2022-08-16T22:31:44.321Z,21.40
2022-08-16T22:34:12.867Z,21.30
2022-08-16T22:36:40.846Z,21.30
2022-08-16T22:39:10.857Z,21.30
2022-08-16T22:41:39.943Z,21.40
2022-08-16T22:44:08.099Z,21.20
2022-08-16T22:46:37.672Z,21.00
2022-08-16T22:49:06.357Z,21.00
2022-08-16T22:51:35.134Z,20.90
2022-08-16T22:54:34.008Z,20.80
2022-08-16T22:56:52.785Z,20.70
2022-08-16T22:59:20.742Z,20.70
2022-08-16T23:01:50.121Z,20.70
2022-08-16T23:04:18.287Z,20.70
2022-08-16T23:06:46.340Z,20.70
2022-08-16T23:09:14.313Z,20.60
2022-08-16T23:11:42.259Z,20.50
2022-08-16T23:14:10.220Z,20.60
2022-08-16T23:16:38.764Z,20.60
2022-08-16T23:19:12.263Z,20.60
2022-08-16T23:21:44.776Z,20.60
2022-08-16T23:24:13.543Z,20.30
2022-08-16T23:26:46.317Z,20.30
2022-08-16T23:29:23.535Z,20.20
2022-08-16T23:31:54.739Z,20.20
2022-08-16T23:34:24.502Z,20.50
2022-08-16T23:36:52.667Z,20.30
2022-08-16T23:39:20.809Z,20.20
2022-08-16T23:41:48.809Z,20.10
2022-08-16T23:44:56.818Z,20.10
2022-08-16T23:47:06.917Z,20.00
2022-08-16T23:49:57.516Z,20.00
2022-08-16T23:52:39.267Z,19.90
2022-08-16T23:55:12.711Z,19.80
2022-08-16T23:57:40.682Z,19.90
